sensor_id;sensor_type;location;lat;lon;timestamp;pressure;altitude;pressure_sealevel;temperature;humidity
31088;BME280;17745;55.914;37.554;2023-04-30T00:00:28;99516.03;;;7.85;71.61
31088;BME280;17745;55.914;37.554;2023-04-30T00:03:04;99520.37;;;7.80;71.50
31088;BME280;17745;55.914;37.554;2023-04-30T00:05:33;99524.50;;;7.76;71.51
31088;BME280;17745;55.914;37.554;2023-04-30T00:08:04;99534.69;;;7.72;71.23
31088;BME280;17745;55.914;37.554;2023-04-30T00:10:33;99528.06;;;7.69;71.40
31088;BME280;17745;55.914;37.554;2023-04-30T00:13:05;99524.03;;;7.67;71.52
31088;BME280;17745;55.914;37.554;2023-04-30T00:15:37;99528.34;;;7.61;71.69
31088;BME280;17745;55.914;37.554;2023-04-30T00:18:08;99534.19;;;7.63;71.73
31088;BME280;17745;55.914;37.554;2023-04-30T00:20:38;99542.09;;;7.63;71.73
31088;BME280;17745;55.914;37.554;2023-04-30T00:23:08;99538.69;;;7.63;71.68
31088;BME280;17745;55.914;37.554;2023-04-30T00:25:38;99539.72;;;7.62;71.74
31088;BME280;17745;55.914;37.554;2023-04-30T00:28:22;99547.03;;;7.60;71.78
31088;BME280;17745;55.914;37.554;2023-04-30T00:30:52;99549.88;;;7.58;71.74
31088;BME280;17745;55.914;37.554;2023-04-30T00:33:20;99548.94;;;7.52;71.69
31088;BME280;17745;55.914;37.554;2023-04-30T00:35:49;99556.50;;;7.49;71.75
31088;BME280;17745;55.914;37.554;2023-04-30T00:38:20;99542.75;;;7.47;71.80
31088;BME280;17745;55.914;37.554;2023-04-30T00:40:48;99545.03;;;7.43;71.78
31088;BME280;17745;55.914;37.554;2023-04-30T00:43:16;99550.75;;;7.40;71.80
31088;BME280;17745;55.914;37.554;2023-04-30T00:45:47;99551.97;;;7.37;71.86
31088;BME280;17745;55.914;37.554;2023-04-30T00:48:17;99557.25;;;7.37;71.97
31088;BME280;17745;55.914;37.554;2023-04-30T00:50:47;99553.38;;;7.40;72.07
31088;BME280;17745;55.914;37.554;2023-04-30T00:53:16;99556.34;;;7.43;72.07
31088;BME280;17745;55.914;37.554;2023-04-30T00:55:45;99558.97;;;7.43;72.01
31088;BME280;17745;55.914;37.554;2023-04-30T00:58:16;99554.53;;;7.44;71.97
31088;BME280;17745;55.914;37.554;2023-04-30T01:00:47;99556.97;;;7.46;72.15
31088;BME280;17745;55.914;37.554;2023-04-30T01:03:22;99552.34;;;7.41;72.06
31088;BME280;17745;55.914;37.554;2023-04-30T01:05:50;99550.50;;;7.41;72.07
31088;BME280;17745;55.914;37.554;2023-04-30T01:08:19;99499.22;;;7.13;72.21
31088;BME280;17745;55.914;37.554;2023-04-30T01:10:55;99552.09;;;7.42;72.05
31088;BME280;17745;55.914;37.554;2023-04-30T01:13:38;99545.47;;;7.40;71.98
31088;BME280;17745;55.914;37.554;2023-04-30T01:16:17;99543.37;;;7.30;71.94
31088;BME280;17745;55.914;37.554;2023-04-30T01:18:50;99555.88;;;7.35;71.87
31088;BME280;17745;55.914;37.554;2023-04-30T01:21:19;99551.59;;;7.34;71.85
31088;BME280;17745;55.914;37.554;2023-04-30T01:24:22;99557.56;;;7.29;71.78
31088;BME280;17745;55.914;37.554;2023-04-30T01:26:59;99558.00;;;7.26;71.40
31088;BME280;17745;55.914;37.554;2023-04-30T01:29:37;99558.28;;;7.18;71.51
31088;BME280;17745;55.914;37.554;2023-04-30T01:32:06;99553.03;;;7.18;71.72
31088;BME280;17745;55.914;37.554;2023-04-30T01:34:41;99557.72;;;7.15;71.74
31088;BME280;17745;55.914;37.554;2023-04-30T01:37:17;99553.25;;;7.16;71.93
31088;BME280;17745;55.914;37.554;2023-04-30T01:40:05;99549.59;;;7.17;71.95
31088;BME280;17745;55.914;37.554;2023-04-30T01:42:43;99537.88;;;7.13;71.82
31088;BME280;17745;55.914;37.554;2023-04-30T01:45:26;99545.50;;;7.21;72.14
31088;BME280;17745;55.914;37.554;2023-04-30T01:48:05;99562.66;;;7.24;71.98
31088;BME280;17745;55.914;37.554;2023-04-30T01:50:40;99560.03;;;7.24;72.11
31088;BME280;17745;55.914;37.554;2023-04-30T01:53:19;99553.16;;;7.23;72.21
31088;BME280;17745;55.914;37.554;2023-04-30T01:55:58;99553.78;;;7.25;72.15
31088;BME280;17745;55.914;37.554;2023-04-30T01:58:29;99552.75;;;7.26;72.20
31088;BME280;17745;55.914;37.554;2023-04-30T02:01:01;99557.56;;;7.29;72.18
31088;BME280;17745;55.914;37.554;2023-04-30T02:03:33;99553.91;;;7.30;72.35
31088;BME280;17745;55.914;37.554;2023-04-30T02:06:02;99543.50;;;7.35;72.56
31088;BME280;17745;55.914;37.554;2023-04-30T02:08:31;99552.09;;;7.42;72.63
31088;BME280;17745;55.914;37.554;2023-04-30T02:13:49;99550.66;;;7.47;72.39
31088;BME280;17745;55.914;37.554;2023-04-30T02:16:20;99537.91;;;7.43;72.38
31088;BME280;17745;55.914;37.554;2023-04-30T02:18:52;99540.91;;;7.47;72.29
31088;BME280;17745;55.914;37.554;2023-04-30T02:21:21;99549.09;;;7.57;72.43
31088;BME280;17745;55.914;37.554;2023-04-30T02:23:50;99554.25;;;7.64;72.31
31088;BME280;17745;55.914;37.554;2023-04-30T02:26:21;99550.94;;;7.69;72.20
31088;BME280;17745;55.914;37.554;2023-04-30T02:28:52;99537.69;;;7.76;72.34
31088;BME280;17745;55.914;37.554;2023-04-30T02:31:23;99538.38;;;7.83;72.18
31088;BME280;17745;55.914;37.554;2023-04-30T02:33:53;99539.88;;;7.91;72.16
31088;BME280;17745;55.914;37.554;2023-04-30T02:36:22;99535.56;;;7.96;72.03
31088;BME280;17745;55.914;37.554;2023-04-30T02:38:50;99529.72;;;7.94;71.64
31088;BME280;17745;55.914;37.554;2023-04-30T02:41:25;99534.16;;;7.94;71.85
31088;BME280;17745;55.914;37.554;2023-04-30T02:43:54;99535.75;;;7.95;71.91
31088;BME280;17745;55.914;37.554;2023-04-30T02:46:28;99534.53;;;7.97;71.60
31088;BME280;17745;55.914;37.554;2023-04-30T02:48:59;99531.88;;;7.97;71.72
31088;BME280;17745;55.914;37.554;2023-04-30T02:51:29;99530.63;;;8.00;71.93
31088;BME280;17745;55.914;37.554;2023-04-30T02:53:58;99529.03;;;8.11;72.05
31088;BME280;17745;55.914;37.554;2023-04-30T02:56:26;99526.88;;;8.20;72.19
31088;BME280;17745;55.914;37.554;2023-04-30T02:58:57;99495.91;;;8.03;72.05
31088;BME280;17745;55.914;37.554;2023-04-30T03:01:27;99526.63;;;8.33;72.20
31088;BME280;17745;55.914;37.554;2023-04-30T03:03:57;99524.47;;;8.42;72.19
31088;BME280;17745;55.914;37.554;2023-04-30T03:06:28;99527.22;;;8.47;72.22
31088;BME280;17745;55.914;37.554;2023-04-30T03:08:59;99490.63;;;8.39;72.18
31088;BME280;17745;55.914;37.554;2023-04-30T03:11:29;99517.00;;;8.63;72.08
31088;BME280;17745;55.914;37.554;2023-04-30T03:13:59;99521.81;;;8.66;72.05
31088;BME280;17745;55.914;37.554;2023-04-30T03:16:32;99515.97;;;8.76;72.29
31088;BME280;17745;55.914;37.554;2023-04-30T03:19:04;99512.06;;;8.78;72.13
31088;BME280;17745;55.914;37.554;2023-04-30T03:21:37;99511.84;;;8.80;71.95
31088;BME280;17745;55.914;37.554;2023-04-30T03:24:09;99514.81;;;8.83;72.04
31088;BME280;17745;55.914;37.554;2023-04-30T03:26:38;99510.09;;;8.85;72.08
31088;BME280;17745;55.914;37.554;2023-04-30T03:29:07;99515.25;;;8.92;72.23
31088;BME280;17745;55.914;37.554;2023-04-30T03:31:46;99514.31;;;8.98;72.43
31088;BME280;17745;55.914;37.554;2023-04-30T03:34:15;99486.75;;;8.94;72.30
31088;BME280;17745;55.914;37.554;2023-04-30T03:36:44;99501.75;;;9.18;72.46
31088;BME280;17745;55.914;37.554;2023-04-30T03:39:14;99498.97;;;9.24;72.27
31088;BME280;17745;55.914;37.554;2023-04-30T03:41:52;99492.72;;;9.30;72.37
31088;BME280;17745;55.914;37.554;2023-04-30T03:44:23;99501.97;;;9.45;72.43
31088;BME280;17745;55.914;37.554;2023-04-30T03:47:04;99500.53;;;9.54;72.51
31088;BME280;17745;55.914;37.554;2023-04-30T03:49:36;99490.06;;;9.60;72.17
31088;BME280;17745;55.914;37.554;2023-04-30T03:52:09;99489.09;;;9.66;72.52
31088;BME280;17745;55.914;37.554;2023-04-30T03:54:42;99488.97;;;9.72;72.43
31088;BME280;17745;55.914;37.554;2023-04-30T03:57:13;99472.34;;;9.77;72.42
31088;BME280;17745;55.914;37.554;2023-04-30T03:59:43;99462.53;;;9.72;72.39
31088;BME280;17745;55.914;37.554;2023-04-30T04:02:14;99479.66;;;9.87;72.61
31088;BME280;17745;55.914;37.554;2023-04-30T04:04:46;99476.63;;;9.95;72.65
31088;BME280;17745;55.914;37.554;2023-04-30T04:07:19;99476.19;;;10.04;72.66
31088;BME280;17745;55.914;37.554;2023-04-30T04:09:52;99479.81;;;10.14;72.77
31088;BME280;17745;55.914;37.554;2023-04-30T04:12:21;99473.56;;;10.21;72.90
31088;BME280;17745;55.914;37.554;2023-04-30T04:14:51;99475.22;;;10.27;73.06
31088;BME280;17745;55.914;37.554;2023-04-30T04:17:22;99471.91;;;10.37;73.04
31088;BME280;17745;55.914;37.554;2023-04-30T04:19:55;99459.09;;;10.46;72.96
31088;BME280;17745;55.914;37.554;2023-04-30T04:22:29;99470.56;;;10.51;72.54
31088;BME280;17745;55.914;37.554;2023-04-30T04:25:25;99470.13;;;10.60;72.60
31088;BME280;17745;55.914;37.554;2023-04-30T04:27:57;99472.88;;;10.70;72.70
31088;BME280;17745;55.914;37.554;2023-04-30T04:30:27;99466.13;;;10.79;72.80
31088;BME280;17745;55.914;37.554;2023-04-30T04:33:07;99464.06;;;10.86;72.70
31088;BME280;17745;55.914;37.554;2023-04-30T04:35:37;99467.72;;;11.03;73.00
31088;BME280;17745;55.914;37.554;2023-04-30T04:38:11;99469.53;;;11.02;73.27
31088;BME280;17745;55.914;37.554;2023-04-30T04:40:50;99469.50;;;10.97;73.78
31088;BME280;17745;55.914;37.554;2023-04-30T04:43:23;99470.22;;;10.92;74.01
31088;BME280;17745;55.914;37.554;2023-04-30T04:45:53;99460.44;;;10.93;74.28
31088;BME280;17745;55.914;37.554;2023-04-30T04:48:24;99469.72;;;10.95;74.51
31088;BME280;17745;55.914;37.554;2023-04-30T04:50:53;99468.72;;;11.01;74.74
31088;BME280;17745;55.914;37.554;2023-04-30T04:53:25;99461.91;;;11.06;74.22
31088;BME280;17745;55.914;37.554;2023-04-30T04:55:58;99467.56;;;11.14;74.65
31088;BME280;17745;55.914;37.554;2023-04-30T04:58:32;99459.75;;;11.30;74.97
31088;BME280;17745;55.914;37.554;2023-04-30T05:01:01;99459.91;;;11.46;74.93
31088;BME280;17745;55.914;37.554;2023-04-30T05:03:39;99458.94;;;11.57;74.56
31088;BME280;17745;55.914;37.554;2023-04-30T05:06:08;99447.06;;;11.65;73.76
31088;BME280;17745;55.914;37.554;2023-04-30T05:08:53;99462.31;;;11.80;74.48
31088;BME280;17745;55.914;37.554;2023-04-30T05:11:32;99465.63;;;11.97;74.64
31088;BME280;17745;55.914;37.554;2023-04-30T05:14:04;99471.84;;;12.13;75.07
31088;BME280;17745;55.914;37.554;2023-04-30T05:16:42;99464.81;;;12.35;75.09
31088;BME280;17745;55.914;37.554;2023-04-30T05:19:27;99465.94;;;12.54;75.22
31088;BME280;17745;55.914;37.554;2023-04-30T05:22:10;99463.34;;;12.65;74.86
31088;BME280;17745;55.914;37.554;2023-04-30T05:24:56;99458.06;;;12.75;74.98
31088;BME280;17745;55.914;37.554;2023-04-30T05:27:25;99451.75;;;12.92;75.44
31088;BME280;17745;55.914;37.554;2023-04-30T05:29:57;99450.19;;;13.06;75.27
31088;BME280;17745;55.914;37.554;2023-04-30T05:32:40;99461.63;;;13.17;75.58
31088;BME280;17745;55.914;37.554;2023-04-30T05:35:13;99448.09;;;13.34;75.58
31088;BME280;17745;55.914;37.554;2023-04-30T05:37:44;99447.63;;;13.48;75.60
31088;BME280;17745;55.914;37.554;2023-04-30T05:40:15;99450.03;;;13.70;75.56
31088;BME280;17745;55.914;37.554;2023-04-30T05:42:48;99447.06;;;13.87;75.55
31088;BME280;17745;55.914;37.554;2023-04-30T05:45:21;99451.56;;;14.02;75.20
31088;BME280;17745;55.914;37.554;2023-04-30T05:47:49;99453.41;;;14.12;75.05
31088;BME280;17745;55.914;37.554;2023-04-30T05:50:40;99456.34;;;14.15;75.27
31088;BME280;17745;55.914;37.554;2023-04-30T05:53:29;99444.59;;;14.27;75.26
31088;BME280;17745;55.914;37.554;2023-04-30T05:56:33;99446.16;;;14.38;74.45
31088;BME280;17745;55.914;37.554;2023-04-30T05:59:06;99442.16;;;14.36;74.10
31088;BME280;17745;55.914;37.554;2023-04-30T06:01:36;99438.97;;;14.34;74.33
31088;BME280;17745;55.914;37.554;2023-04-30T06:04:10;99442.91;;;14.47;74.92
31088;BME280;17745;55.914;37.554;2023-04-30T06:06:43;99440.19;;;14.72;75.25
31088;BME280;17745;55.914;37.554;2023-04-30T06:09:14;99453.91;;;15.00;75.42
31088;BME280;17745;55.914;37.554;2023-04-30T06:11:45;99445.81;;;15.16;74.62
31088;BME280;17745;55.914;37.554;2023-04-30T06:14:19;99448.12;;;15.28;74.76
31088;BME280;17745;55.914;37.554;2023-04-30T06:16:48;99452.66;;;15.27;74.54
31088;BME280;17745;55.914;37.554;2023-04-30T06:19:52;99453.78;;;15.21;74.07
31088;BME280;17745;55.914;37.554;2023-04-30T06:25:28;99454.03;;;15.20;74.24
31088;BME280;17745;55.914;37.554;2023-04-30T06:28:00;99454.34;;;15.18;74.71
31088;BME280;17745;55.914;37.554;2023-04-30T06:30:56;99456.75;;;15.14;74.43
31088;BME280;17745;55.914;37.554;2023-04-30T06:33:34;99451.25;;;15.00;73.64
31088;BME280;17745;55.914;37.554;2023-04-30T06:36:13;99458.75;;;14.93;74.36
31088;BME280;17745;55.914;37.554;2023-04-30T06:39:08;99453.69;;;14.92;74.15
31088;BME280;17745;55.914;37.554;2023-04-30T06:41:39;99459.56;;;14.89;74.00
31088;BME280;17745;55.914;37.554;2023-04-30T06:44:08;99449.97;;;14.87;73.91
31088;BME280;17745;55.914;37.554;2023-04-30T06:46:43;99458.47;;;14.95;73.69
31088;BME280;17745;55.914;37.554;2023-04-30T06:49:17;99449.66;;;14.99;74.02
31088;BME280;17745;55.914;37.554;2023-04-30T06:51:50;99447.94;;;15.19;74.46
31088;BME280;17745;55.914;37.554;2023-04-30T06:54:23;99448.03;;;15.43;73.82
31088;BME280;17745;55.914;37.554;2023-04-30T06:57:04;99438.91;;;15.50;73.08
31088;BME280;17745;55.914;37.554;2023-04-30T06:59:36;99433.88;;;15.43;72.63
31088;BME280;17745;55.914;37.554;2023-04-30T07:02:09;99428.53;;;15.43;73.46
31088;BME280;17745;55.914;37.554;2023-04-30T07:04:42;99434.22;;;15.66;73.29
31088;BME280;17745;55.914;37.554;2023-04-30T07:07:11;99427.63;;;15.87;73.29
31088;BME280;17745;55.914;37.554;2023-04-30T07:09:42;99413.87;;;16.05;73.08
31088;BME280;17745;55.914;37.554;2023-04-30T07:12:30;99419.03;;;16.20;71.42
31088;BME280;17745;55.914;37.554;2023-04-30T07:14:59;99424.53;;;16.29;72.03
31088;BME280;17745;55.914;37.554;2023-04-30T07:17:45;99406.19;;;16.47;72.11
31088;BME280;17745;55.914;37.554;2023-04-30T07:20:21;99405.63;;;16.69;72.20
31088;BME280;17745;55.914;37.554;2023-04-30T07:22:51;99401.00;;;16.94;72.13
31088;BME280;17745;55.914;37.554;2023-04-30T07:25:23;99395.38;;;17.14;72.46
31088;BME280;17745;55.914;37.554;2023-04-30T07:28:09;99360.31;;;17.16;72.25
31088;BME280;17745;55.914;37.554;2023-04-30T07:30:40;99391.19;;;17.41;72.33
31088;BME280;17745;55.914;37.554;2023-04-30T07:33:11;99389.34;;;17.56;72.19
31088;BME280;17745;55.914;37.554;2023-04-30T07:35:39;99383.63;;;17.63;71.71
31088;BME280;17745;55.914;37.554;2023-04-30T07:38:08;99384.22;;;17.60;70.64
31088;BME280;17745;55.914;37.554;2023-04-30T07:40:59;99370.09;;;17.40;68.33
31088;BME280;17745;55.914;37.554;2023-04-30T07:43:38;99383.09;;;17.13;68.85
31088;BME280;17745;55.914;37.554;2023-04-30T07:46:07;99378.59;;;16.90;69.01
31088;BME280;17745;55.914;37.554;2023-04-30T07:48:46;99366.31;;;16.89;67.76
31088;BME280;17745;55.914;37.554;2023-04-30T07:51:20;99364.75;;;16.87;67.70
31088;BME280;17745;55.914;37.554;2023-04-30T07:54:04;99348.47;;;16.84;68.46
31088;BME280;17745;55.914;37.554;2023-04-30T07:56:36;99325.44;;;16.69;66.49
31088;BME280;17745;55.914;37.554;2023-04-30T07:59:05;99348.50;;;16.65;64.79
31088;BME280;17745;55.914;37.554;2023-04-30T08:01:37;99340.97;;;16.67;65.15
31088;BME280;17745;55.914;37.554;2023-04-30T08:04:09;99336.31;;;16.72;66.71
31088;BME280;17745;55.914;37.554;2023-04-30T08:06:37;99303.09;;;16.79;64.95
31088;BME280;17745;55.914;37.554;2023-04-30T08:09:06;99328.56;;;16.90;67.32
31088;BME280;17745;55.914;37.554;2023-04-30T08:11:41;99329.69;;;17.08;67.12
31088;BME280;17745;55.914;37.554;2023-04-30T08:14:15;99308.00;;;17.24;66.96
31088;BME280;17745;55.914;37.554;2023-04-30T08:16:46;99305.16;;;17.34;67.15
31088;BME280;17745;55.914;37.554;2023-04-30T08:19:23;99309.06;;;17.56;68.52
31088;BME280;17745;55.914;37.554;2023-04-30T08:21:52;99299.53;;;17.78;69.20
31088;BME280;17745;55.914;37.554;2023-04-30T08:24:21;99290.88;;;17.95;68.69
31088;BME280;17745;55.914;37.554;2023-04-30T08:26:54;99286.94;;;17.92;68.87
31088;BME280;17745;55.914;37.554;2023-04-30T08:29:30;99294.09;;;17.97;68.89
31088;BME280;17745;55.914;37.554;2023-04-30T08:32:00;99281.47;;;17.97;68.03
31088;BME280;17745;55.914;37.554;2023-04-30T08:34:31;99274.94;;;17.76;66.83
31088;BME280;17745;55.914;37.554;2023-04-30T08:37:03;99266.41;;;17.74;67.36
31088;BME280;17745;55.914;37.554;2023-04-30T08:39:34;99249.47;;;17.22;59.48
31088;BME280;17745;55.914;37.554;2023-04-30T08:42:08;99251.12;;;16.85;59.72
31088;BME280;17745;55.914;37.554;2023-04-30T08:44:38;99241.94;;;16.39;57.90
31088;BME280;17745;55.914;37.554;2023-04-30T08:47:10;99237.13;;;16.03;56.82
31088;BME280;17745;55.914;37.554;2023-04-30T08:49:42;99241.66;;;16.02;58.43
31088;BME280;17745;55.914;37.554;2023-04-30T08:52:13;99244.13;;;16.18;61.94
31088;BME280;17745;55.914;37.554;2023-04-30T08:54:43;99257.03;;;16.49;63.61
31088;BME280;17745;55.914;37.554;2023-04-30T08:57:15;99239.06;;;16.87;64.29
31088;BME280;17745;55.914;37.554;2023-04-30T08:59:47;99247.91;;;17.02;63.15
31088;BME280;17745;55.914;37.554;2023-04-30T09:02:18;99242.19;;;17.09;64.36
31088;BME280;17745;55.914;37.554;2023-04-30T09:04:52;99219.81;;;17.05;63.67
31088;BME280;17745;55.914;37.554;2023-04-30T09:07:26;99218.94;;;16.90;58.81
31088;BME280;17745;55.914;37.554;2023-04-30T09:10:01;99227.50;;;16.59;58.33
31088;BME280;17745;55.914;37.554;2023-04-30T09:15:25;99191.03;;;16.49;61.25
31088;BME280;17745;55.914;37.554;2023-04-30T09:21:02;99206.94;;;16.74;63.12
31088;BME280;17745;55.914;37.554;2023-04-30T09:23:36;99192.03;;;16.86;65.04
31088;BME280;17745;55.914;37.554;2023-04-30T09:26:19;99174.09;;;16.87;64.56
31088;BME280;17745;55.914;37.554;2023-04-30T09:29:00;99182.31;;;16.77;60.41
31088;BME280;17745;55.914;37.554;2023-04-30T09:31:48;99159.88;;;16.25;57.60
31088;BME280;17745;55.914;37.554;2023-04-30T09:34:33;99177.84;;;16.00;59.07
31088;BME280;17745;55.914;37.554;2023-04-30T09:37:22;99170.94;;;15.99;57.74
31088;BME280;17745;55.914;37.554;2023-04-30T09:40:06;99170.22;;;15.94;59.53
31088;BME280;17745;55.914;37.554;2023-04-30T09:42:39;99161.72;;;15.92;57.01
31088;BME280;17745;55.914;37.554;2023-04-30T09:45:29;99157.78;;;15.84;59.99
31088;BME280;17745;55.914;37.554;2023-04-30T09:48:14;99148.37;;;15.86;57.87
31088;BME280;17745;55.914;37.554;2023-04-30T09:50:57;99147.97;;;15.98;60.81
31088;BME280;17745;55.914;37.554;2023-04-30T09:53:34;99141.69;;;16.27;62.32
31088;BME280;17745;55.914;37.554;2023-04-30T09:56:37;99124.19;;;16.35;61.84
31088;BME280;17745;55.914;37.554;2023-04-30T09:59:27;99127.69;;;16.50;62.95
31088;BME280;17745;55.914;37.554;2023-04-30T10:02:25;99128.22;;;16.66;62.60
31088;BME280;17745;55.914;37.554;2023-04-30T10:05:08;99131.19;;;16.78;62.80
31088;BME280;17745;55.914;37.554;2023-04-30T10:07:39;99128.34;;;16.89;62.13
31088;BME280;17745;55.914;37.554;2023-04-30T10:10:18;99092.97;;;16.64;61.88
31088;BME280;17745;55.914;37.554;2023-04-30T10:13:08;99123.50;;;16.91;62.99
31088;BME280;17745;55.914;37.554;2023-04-30T10:16:09;99121.03;;;16.94;59.61
31088;BME280;17745;55.914;37.554;2023-04-30T10:18:53;99112.25;;;16.61;56.24
31088;BME280;17745;55.914;37.554;2023-04-30T10:21:32;99125.34;;;16.29;57.15
31088;BME280;17745;55.914;37.554;2023-04-30T10:24:20;99122.41;;;16.31;57.10
31088;BME280;17745;55.914;37.554;2023-04-30T10:27:06;99113.84;;;15.95;51.26
31088;BME280;17745;55.914;37.554;2023-04-30T10:29:40;99112.41;;;16.03;56.55
31088;BME280;17745;55.914;37.554;2023-04-30T10:32:37;99113.06;;;15.95;55.30
31088;BME280;17745;55.914;37.554;2023-04-30T10:35:15;99125.16;;;15.87;57.49
31088;BME280;17745;55.914;37.554;2023-04-30T10:38:06;99124.91;;;15.89;57.34
31088;BME280;17745;55.914;37.554;2023-04-30T10:40:44;99117.34;;;15.96;58.27
31088;BME280;17745;55.914;37.554;2023-04-30T10:43:17;99121.22;;;16.04;60.46
31088;BME280;17745;55.914;37.554;2023-04-30T10:45:57;99131.31;;;16.07;58.61
31088;BME280;17745;55.914;37.554;2023-04-30T10:48:26;99131.16;;;16.17;61.30
31088;BME280;17745;55.914;37.554;2023-04-30T10:51:16;99133.00;;;16.36;61.89
31088;BME280;17745;55.914;37.554;2023-04-30T10:53:48;99132.84;;;16.46;60.69
31088;BME280;17745;55.914;37.554;2023-04-30T10:56:30;99123.72;;;16.47;62.00
31088;BME280;17745;55.914;37.554;2023-04-30T10:59:13;99125.97;;;16.40;62.20
31088;BME280;17745;55.914;37.554;2023-04-30T11:02:05;99124.37;;;16.39;61.63
31088;BME280;17745;55.914;37.554;2023-04-30T11:05:09;99117.91;;;16.45;62.42
31088;BME280;17745;55.914;37.554;2023-04-30T11:07:57;99116.81;;;16.46;60.44
31088;BME280;17745;55.914;37.554;2023-04-30T11:10:57;99118.50;;;16.56;61.65
31088;BME280;17745;55.914;37.554;2023-04-30T11:13:43;99135.94;;;16.67;62.66
31088;BME280;17745;55.914;37.554;2023-04-30T11:16:18;99132.09;;;16.74;63.33
31088;BME280;17745;55.914;37.554;2023-04-30T11:19:13;99123.66;;;16.80;63.96
31088;BME280;17745;55.914;37.554;2023-04-30T11:22:21;99127.16;;;16.95;64.24
31088;BME280;17745;55.914;37.554;2023-04-30T11:25:18;99133.13;;;17.20;63.90
31088;BME280;17745;55.914;37.554;2023-04-30T11:27:58;99116.75;;;17.35;63.91
31088;BME280;17745;55.914;37.554;2023-04-30T11:30:50;99113.16;;;17.54;63.56
31088;BME280;17745;55.914;37.554;2023-04-30T11:40:28;99104.63;;;18.57;63.75
31088;BME280;17745;55.914;37.554;2023-04-30T11:43:25;99086.37;;;18.77;62.13
31088;BME280;17745;55.914;37.554;2023-04-30T11:46:03;99081.66;;;18.42;58.23
31088;BME280;17745;55.914;37.554;2023-04-30T11:48:39;99071.03;;;18.28;59.97
31088;BME280;17745;55.914;37.554;2023-04-30T11:51:22;99056.63;;;18.15;60.73
31088;BME280;17745;55.914;37.554;2023-04-30T11:54:08;99053.09;;;18.06;58.84
31088;BME280;17745;55.914;37.554;2023-04-30T11:56:50;99040.63;;;17.78;59.74
31088;BME280;17745;55.914;37.554;2023-04-30T11:59:30;99041.19;;;17.52;57.49
31088;BME280;17745;55.914;37.554;2023-04-30T12:02:01;99037.59;;;17.34;58.66
31088;BME280;17745;55.914;37.554;2023-04-30T12:04:36;99035.63;;;17.12;55.95
31088;BME280;17745;55.914;37.554;2023-04-30T12:07:07;99029.09;;;17.18;58.01
31088;BME280;17745;55.914;37.554;2023-04-30T12:09:51;99033.53;;;17.23;58.12
31088;BME280;17745;55.914;37.554;2023-04-30T12:12:38;99023.72;;;17.32;56.85
31088;BME280;17745;55.914;37.554;2023-04-30T12:15:16;99021.16;;;17.27;55.94
31088;BME280;17745;55.914;37.554;2023-04-30T12:17:53;99025.13;;;17.15;57.64
31088;BME280;17745;55.914;37.554;2023-04-30T12:20:37;99023.78;;;17.41;58.89
31088;BME280;17745;55.914;37.554;2023-04-30T12:23:14;99035.00;;;17.89;58.53
31088;BME280;17745;55.914;37.554;2023-04-30T12:26:07;99018.94;;;18.11;58.28
31088;BME280;17745;55.914;37.554;2023-04-30T12:28:42;99021.03;;;18.00;53.66
31088;BME280;17745;55.914;37.554;2023-04-30T12:31:33;99017.59;;;18.00;55.29
31088;BME280;17745;55.914;37.554;2023-04-30T12:34:11;99005.75;;;18.24;58.05
31088;BME280;17745;55.914;37.554;2023-04-30T12:36:56;99010.03;;;18.25;59.48
31088;BME280;17745;55.914;37.554;2023-04-30T12:39:36;99007.47;;;17.65;50.81
31088;BME280;17745;55.914;37.554;2023-04-30T12:42:35;99013.75;;;16.96;51.80
31088;BME280;17745;55.914;37.554;2023-04-30T12:46:09;99006.84;;;16.53;52.40
31088;BME280;17745;55.914;37.554;2023-04-30T12:48:43;99011.34;;;16.10;53.51
31088;BME280;17745;55.914;37.554;2023-04-30T12:51:29;99021.03;;;16.06;57.08
31088;BME280;17745;55.914;37.554;2023-04-30T12:54:27;99027.59;;;16.14;59.48
31088;BME280;17745;55.914;37.554;2023-04-30T12:57:26;99020.88;;;16.17;60.08
31088;BME280;17745;55.914;37.554;2023-04-30T13:00:14;99018.47;;;16.15;61.80
31088;BME280;17745;55.914;37.554;2023-04-30T13:02:46;99016.31;;;16.17;62.78
31088;BME280;17745;55.914;37.554;2023-04-30T13:05:23;99018.47;;;16.15;62.46
31088;BME280;17745;55.914;37.554;2023-04-30T13:08:01;99012.53;;;16.04;62.78
31088;BME280;17745;55.914;37.554;2023-04-30T13:10:33;99016.16;;;15.94;63.19
31088;BME280;17745;55.914;37.554;2023-04-30T13:13:04;99032.28;;;15.89;62.71
31088;BME280;17745;55.914;37.554;2023-04-30T13:15:34;99012.34;;;15.81;63.29
31088;BME280;17745;55.914;37.554;2023-04-30T13:18:06;98995.59;;;15.76;63.21
31088;BME280;17745;55.914;37.554;2023-04-30T13:20:54;99001.41;;;15.64;63.13
31088;BME280;17745;55.914;37.554;2023-04-30T13:23:24;98992.69;;;15.58;62.76
31088;BME280;17745;55.914;37.554;2023-04-30T13:25:54;98992.47;;;15.54;62.93
31088;BME280;17745;55.914;37.554;2023-04-30T13:28:23;98997.50;;;15.56;63.77
31088;BME280;17745;55.914;37.554;2023-04-30T13:30:57;99003.28;;;15.63;64.26
31088;BME280;17745;55.914;37.554;2023-04-30T13:33:34;98988.78;;;15.69;63.82
31088;BME280;17745;55.914;37.554;2023-04-30T13:39:10;98990.72;;;15.64;64.22
31088;BME280;17745;55.914;37.554;2023-04-30T13:41:48;98995.78;;;15.65;65.00
31088;BME280;17745;55.914;37.554;2023-04-30T13:44:18;98991.53;;;15.64;65.05
31088;BME280;17745;55.914;37.554;2023-04-30T13:46:48;98990.00;;;15.58;64.89
31088;BME280;17745;55.914;37.554;2023-04-30T13:49:43;98986.06;;;15.55;64.81
31088;BME280;17745;55.914;37.554;2023-04-30T13:52:12;98953.06;;;15.32;65.04
31088;BME280;17745;55.914;37.554;2023-04-30T13:54:44;98967.97;;;15.33;65.36
31088;BME280;17745;55.914;37.554;2023-04-30T13:57:13;98965.66;;;15.26;65.08
31088;BME280;17745;55.914;37.554;2023-04-30T13:59:43;98961.59;;;15.15;64.74
31088;BME280;17745;55.914;37.554;2023-04-30T14:02:39;98957.59;;;15.12;65.48